createdAt,value
2019-02-28T00:01:47.786Z,13.33
2019-02-28T00:04:17.575Z,13.00
2019-02-28T00:06:45.946Z,14.47
2019-02-28T00:09:15.059Z,12.80
2019-02-28T00:11:43.431Z,16.10
2019-02-28T00:14:13.436Z,12.73
2019-02-28T00:16:42.222Z,14.93
2019-02-28T00:19:10.481Z,12.10
2019-02-28T00:21:40.627Z,11.63
2019-02-28T00:24:10.750Z,13.97
2019-02-28T00:26:39.102Z,11.67
2019-02-28T00:29:09.490Z,15.47
2019-02-28T00:31:39.122Z,12.63
2019-02-28T00:34:08.843Z,13.57
2019-02-28T00:36:37.709Z,13.87
2019-02-28T00:39:06.882Z,14.73
2019-02-28T00:41:35.810Z,12.23
2019-02-28T00:44:04.507Z,15.40
2019-02-28T00:46:33.180Z,10.77
2019-02-28T00:49:01.209Z,14.13
2019-02-28T00:51:30.611Z,12.27
2019-02-28T00:53:58.809Z,11.67
2019-02-28T00:56:27.635Z,12.20
2019-02-28T00:58:56.701Z,10.40
2019-02-28T01:01:25.986Z,12.67
2019-02-28T01:03:57.969Z,12.70
2019-02-28T01:06:25.936Z,12.50
2019-02-28T01:08:56.086Z,10.37
2019-02-28T01:11:25.175Z,10.80
2019-02-28T01:13:53.832Z,11.47
2019-02-28T01:16:22.271Z,11.97
2019-02-28T01:18:50.915Z,8.67
2019-02-28T01:21:23.631Z,11.63
2019-02-28T01:23:51.916Z,11.70
2019-02-28T01:26:20.647Z,13.47
2019-02-28T01:28:48.684Z,11.50
2019-02-28T01:31:20.967Z,11.57
2019-02-28T01:33:49.358Z,10.07
2019-02-28T01:36:17.704Z,11.27
2019-02-28T01:38:46.027Z,11.90
2019-02-28T01:41:15.045Z,9.37
2019-02-28T01:43:44.477Z,8.27
2019-02-28T01:46:17.214Z,9.37
2019-02-28T01:48:46.253Z,10.33
2019-02-28T01:51:15.655Z,9.57
2019-02-28T01:53:44.142Z,12.27
2019-02-28T01:56:12.513Z,9.10
2019-02-28T01:58:41.753Z,8.43
2019-02-28T02:01:09.701Z,9.47
2019-02-28T02:03:40.670Z,9.70
2019-02-28T02:06:07.723Z,10.53
2019-02-28T02:08:37.769Z,11.17
2019-02-28T02:11:08.130Z,10.73
2019-02-28T02:13:37.707Z,10.23
2019-02-28T02:16:07.037Z,8.73
2019-02-28T02:18:37.092Z,12.43
2019-02-28T02:21:06.092Z,10.70
2019-02-28T02:23:36.547Z,10.87
2019-02-28T02:26:08.432Z,9.43
2019-02-28T02:28:37.343Z,9.50
2019-02-28T02:31:07.054Z,8.77
2019-02-28T02:33:35.484Z,9.27
2019-02-28T02:36:04.631Z,9.70
2019-02-28T02:38:39.794Z,11.93
2019-02-28T02:41:05.532Z,8.80
2019-02-28T02:43:35.574Z,9.23
2019-02-28T02:46:04.990Z,12.37
2019-02-28T02:48:33.555Z,8.87
2019-02-28T02:51:10.649Z,11.23
2019-02-28T02:53:41.411Z,8.77
2019-02-28T02:56:07.333Z,13.70
2019-02-28T02:58:36.556Z,11.73
2019-02-28T03:01:05.404Z,11.97
2019-02-28T03:03:42.897Z,11.43
2019-02-28T03:06:12.127Z,10.60
2019-02-28T03:08:37.448Z,9.90
2019-02-28T03:11:07.064Z,12.40
2019-02-28T03:13:42.274Z,14.10
2019-02-28T03:16:06.133Z,9.13
2019-02-28T03:18:34.322Z,12.20
2019-02-28T03:21:04.156Z,13.57
2019-02-28T03:23:37.946Z,8.47
2019-02-28T03:26:06.893Z,12.00
2019-02-28T03:28:33.345Z,10.37
2019-02-28T03:31:12.158Z,9.30
2019-02-28T03:33:33.202Z,10.53
2019-02-28T03:36:01.313Z,9.27
2019-02-28T03:38:29.633Z,9.23
2019-02-28T03:40:58.016Z,10.10
2019-02-28T03:43:26.905Z,8.23
2019-02-28T03:45:56.254Z,8.83
2019-02-28T03:48:24.878Z,10.90
2019-02-28T03:50:55.204Z,9.23
2019-02-28T03:53:23.389Z,10.57
2019-02-28T03:55:52.277Z,9.20
2019-02-28T03:58:20.911Z,10.07
2019-02-28T04:00:49.072Z,8.63
2019-02-28T04:03:17.812Z,12.73
2019-02-28T04:05:45.844Z,11.63
2019-02-28T04:08:13.922Z,13.77
2019-02-28T04:10:43.433Z,11.30
2019-02-28T04:13:13.501Z,10.67
2019-02-28T04:15:49.728Z,10.53
2019-02-28T04:18:12.782Z,11.40
2019-02-28T04:20:40.989Z,10.17
2019-02-28T04:23:08.986Z,11.30
2019-02-28T04:25:37.089Z,9.97
2019-02-28T04:28:05.572Z,9.47
2019-02-28T04:30:34.359Z,10.50
2019-02-28T04:33:02.848Z,11.50
2019-02-28T04:35:31.215Z,11.70
2019-02-28T04:37:59.854Z,14.13
2019-02-28T04:40:30.121Z,11.63
2019-02-28T04:42:58.513Z,13.40
2019-02-28T04:45:27.144Z,11.53
2019-02-28T04:47:55.896Z,10.57
2019-02-28T04:50:24.387Z,11.63
2019-02-28T04:52:52.912Z,11.00
2019-02-28T04:55:20.991Z,12.63
2019-02-28T04:57:51.671Z,12.37
2019-02-28T05:00:20.921Z,14.67
2019-02-28T05:02:53.743Z,16.47
2019-02-28T05:05:20.495Z,12.50
2019-02-28T05:07:48.471Z,11.03
2019-02-28T05:10:19.307Z,11.17
2019-02-28T05:12:47.354Z,10.13
2019-02-28T05:15:16.756Z,11.13
2019-02-28T05:17:46.997Z,11.00
2019-02-28T05:20:15.429Z,11.67
2019-02-28T05:22:46.162Z,11.87
2019-02-28T05:25:18.003Z,10.73
2019-02-28T05:27:44.954Z,13.13
2019-02-28T05:30:17.901Z,12.03
2019-02-28T05:32:43.853Z,11.17
2019-02-28T05:35:12.485Z,15.33
2019-02-28T05:37:47.342Z,13.13
2019-02-28T05:40:13.794Z,12.80
2019-02-28T05:42:42.226Z,11.40
2019-02-28T05:45:14.841Z,14.00
2019-02-28T05:47:46.276Z,14.27
2019-02-28T05:50:15.906Z,11.83
2019-02-28T05:52:42.568Z,11.03
2019-02-28T05:55:10.672Z,12.20
2019-02-28T05:57:39.335Z,11.23
2019-02-28T06:00:10.531Z,17.47
2019-02-28T06:02:38.904Z,14.67
2019-02-28T06:05:08.393Z,15.07
2019-02-28T06:07:39.713Z,12.90
2019-02-28T06:10:08.841Z,12.13
2019-02-28T06:12:36.941Z,13.83
2019-02-28T06:15:06.721Z,11.57
2019-02-28T06:17:34.998Z,11.40
2019-02-28T06:20:04.101Z,15.47
2019-02-28T06:22:36.320Z,11.47
2019-02-28T06:25:04.820Z,14.03
2019-02-28T06:27:41.116Z,19.60
2019-02-28T06:30:04.126Z,13.20
2019-02-28T06:32:32.436Z,17.60
2019-02-28T06:35:00.723Z,15.67
2019-02-28T06:37:30.347Z,11.90
2019-02-28T06:39:59.367Z,12.87
2019-02-28T06:42:28.288Z,15.13
2019-02-28T06:44:58.686Z,11.60
2019-02-28T06:47:27.908Z,15.37
2019-02-28T06:49:56.878Z,14.30
2019-02-28T06:52:26.014Z,15.50
2019-02-28T06:54:54.398Z,27.40
2019-02-28T06:57:23.325Z,15.13
2019-02-28T06:59:52.428Z,13.33
2019-02-28T07:02:20.815Z,15.03
2019-02-28T07:04:50.520Z,15.67
2019-02-28T07:07:18.968Z,17.33
2019-02-28T07:09:48.076Z,12.80
2019-02-28T07:12:16.105Z,15.73
2019-02-28T07:14:49.335Z,15.27
2019-02-28T07:17:15.490Z,14.23
2019-02-28T07:19:44.208Z,11.43
2019-02-28T07:22:12.206Z,13.77
2019-02-28T07:24:40.254Z,14.60
2019-02-28T07:27:08.342Z,17.40
2019-02-28T07:29:37.235Z,17.23
2019-02-28T07:32:05.440Z,15.10
2019-02-28T07:34:33.851Z,17.60
2019-02-28T07:37:02.503Z,19.03
2019-02-28T07:39:30.579Z,12.50
2019-02-28T07:42:02.184Z,20.03
2019-02-28T07:44:29.024Z,17.37
2019-02-28T07:46:57.345Z,17.90
2019-02-28T07:49:26.453Z,17.77
2019-02-28T07:51:56.905Z,14.47
2019-02-28T07:54:25.180Z,11.60
2019-02-28T07:56:53.160Z,18.97
2019-02-28T07:59:21.188Z,17.47
2019-02-28T08:01:50.944Z,18.40
2019-02-28T08:04:20.305Z,16.77
2019-02-28T08:06:49.418Z,19.63
2019-02-28T08:09:30.008Z,19.53
2019-02-28T08:11:58.418Z,17.23
2019-02-28T08:14:26.659Z,18.33
2019-02-28T08:16:55.606Z,23.00
2019-02-28T08:19:27.174Z,17.87
2019-02-28T08:21:54.289Z,17.27
2019-02-28T08:24:22.387Z,30.13
2019-02-28T08:26:50.688Z,16.07
2019-02-28T08:29:20.937Z,21.73
2019-02-28T08:31:49.503Z,15.90
2019-02-28T08:34:20.577Z,18.57
2019-02-28T08:36:48.168Z,15.60
2019-02-28T08:39:17.329Z,21.07
2019-02-28T08:41:45.730Z,17.13
2019-02-28T08:44:13.965Z,15.63
2019-02-28T08:46:43.557Z,16.47
2019-02-28T08:49:12.529Z,19.57
2019-02-28T08:51:43.255Z,18.87
2019-02-28T08:54:12.277Z,19.67
2019-02-28T08:56:41.270Z,15.23
2019-02-28T08:59:28.979Z,16.53
2019-02-28T09:02:00.227Z,14.53
2019-02-28T09:04:28.205Z,16.20
2019-02-28T09:06:56.177Z,15.47
2019-02-28T09:09:24.394Z,14.43
2019-02-28T09:11:57.906Z,18.40
2019-02-28T09:14:23.248Z,16.60
2019-02-28T09:16:51.294Z,15.57
2019-02-28T09:19:19.368Z,13.23
2019-02-28T09:21:49.369Z,15.50
2019-02-28T09:24:17.383Z,14.90
2019-02-28T09:26:46.229Z,15.73
2019-02-28T09:29:14.339Z,19.37
2019-02-28T09:31:44.491Z,17.33
2019-02-28T09:34:12.572Z,16.50
2019-02-28T09:36:40.984Z,18.33
2019-02-28T09:39:09.104Z,17.93
2019-02-28T09:41:49.732Z,18.50
2019-02-28T09:44:17.766Z,20.13
2019-02-28T09:46:47.528Z,19.90
2019-02-28T09:49:18.676Z,19.50
2019-02-28T09:51:47.023Z,23.23
2019-02-28T09:54:15.933Z,18.60
2019-02-28T09:56:45.324Z,22.80
2019-02-28T09:59:14.318Z,20.30
2019-02-28T10:01:42.562Z,21.00
2019-02-28T10:04:11.618Z,18.03
2019-02-28T10:06:40.782Z,20.20
2019-02-28T10:09:09.516Z,20.40
2019-02-28T10:11:38.227Z,21.23
2019-02-28T10:14:07.227Z,25.50
2019-02-28T10:16:35.598Z,21.60
2019-02-28T10:19:05.250Z,20.63
2019-02-28T10:21:36.501Z,17.57
2019-02-28T10:24:04.007Z,20.67
2019-02-28T10:26:32.731Z,19.23
2019-02-28T10:29:01.242Z,22.13
2019-02-28T10:31:36.134Z,20.53
2019-02-28T10:34:00.203Z,20.03
2019-02-28T10:36:30.195Z,17.60
2019-02-28T10:38:59.272Z,15.73
2019-02-28T10:41:28.029Z,16.00
2019-02-28T10:43:57.073Z,16.37
2019-02-28T10:46:25.314Z,17.43
2019-02-28T10:48:53.609Z,15.43
2019-02-28T10:51:21.986Z,17.33
2019-02-28T10:53:50.181Z,15.87
2019-02-28T10:56:18.816Z,17.50
2019-02-28T10:58:49.925Z,15.23
2019-02-28T11:01:17.845Z,17.50
2019-02-28T11:03:46.057Z,15.20
2019-02-28T11:06:14.537Z,16.83
2019-02-28T11:08:44.504Z,16.53
2019-02-28T11:11:16.418Z,18.83
2019-02-28T11:13:44.876Z,19.07
2019-02-28T11:16:14.147Z,16.90
2019-02-28T11:18:42.979Z,16.83
2019-02-28T11:21:12.121Z,15.00
2019-02-28T11:23:42.938Z,16.17
2019-02-28T11:26:11.338Z,16.33
2019-02-28T11:28:40.122Z,13.50
2019-02-28T11:31:11.098Z,13.43
2019-02-28T11:33:40.431Z,13.60
2019-02-28T11:36:09.358Z,17.53
2019-02-28T11:38:38.660Z,17.43
2019-02-28T11:41:07.232Z,13.10
2019-02-28T11:43:38.485Z,17.43
2019-02-28T11:46:09.201Z,14.03
2019-02-28T11:48:37.689Z,13.10
2019-02-28T11:51:07.997Z,11.57
2019-02-28T11:53:40.322Z,15.00
2019-02-28T11:56:07.608Z,13.57
2019-02-28T11:58:35.923Z,14.07
2019-02-28T12:01:10.089Z,12.03
2019-02-28T12:03:36.472Z,11.67
2019-02-28T12:06:06.900Z,15.20
2019-02-28T12:08:35.317Z,14.83
2019-02-28T12:11:10.258Z,13.40
2019-02-28T12:13:38.366Z,17.23
2019-02-28T12:16:07.179Z,14.63
2019-02-28T12:18:39.699Z,16.43
2019-02-28T12:21:06.314Z,14.63
2019-02-28T12:23:34.714Z,13.27
2019-02-28T12:26:03.396Z,12.33
2019-02-28T12:28:31.594Z,14.50
2019-02-28T12:31:00.321Z,14.77
2019-02-28T12:33:29.889Z,14.27
2019-02-28T12:35:58.500Z,13.77
2019-02-28T12:38:29.175Z,17.23
2019-02-28T12:40:58.115Z,15.93
2019-02-28T12:43:26.531Z,15.47
2019-02-28T12:45:56.876Z,12.37
2019-02-28T12:48:27.152Z,15.70
2019-02-28T12:50:55.664Z,16.00
2019-02-28T12:53:25.345Z,15.97
2019-02-28T12:55:53.526Z,14.17
2019-02-28T12:58:21.621Z,16.43
2019-02-28T13:00:50.534Z,15.37
2019-02-28T13:03:21.206Z,12.10
2019-02-28T13:05:49.640Z,18.70
2019-02-28T13:08:18.094Z,14.60
2019-02-28T13:10:47.588Z,18.33
2019-02-28T13:13:15.966Z,13.93
2019-02-28T13:15:45.513Z,17.83
2019-02-28T13:18:15.892Z,15.57
2019-02-28T13:20:44.959Z,18.00
2019-02-28T13:23:13.775Z,15.83
2019-02-28T13:25:42.199Z,15.40
2019-02-28T13:28:10.934Z,16.97
2019-02-28T13:30:40.549Z,17.40
2019-02-28T13:33:11.027Z,16.43
2019-02-28T13:35:45.441Z,16.40
2019-02-28T13:38:14.307Z,15.67
2019-02-28T13:40:44.331Z,16.67
2019-02-28T13:43:10.459Z,14.33
2019-02-28T13:45:40.416Z,17.20
2019-02-28T13:48:09.880Z,16.30
2019-02-28T13:50:38.412Z,15.03
2019-02-28T13:53:17.551Z,17.93
2019-02-28T13:55:38.167Z,14.97
2019-02-28T13:58:06.257Z,15.33
2019-02-28T14:00:34.488Z,15.17
2019-02-28T14:03:08.849Z,15.23
2019-02-28T14:05:40.862Z,14.40
2019-02-28T14:08:11.362Z,13.97
2019-02-28T14:10:37.714Z,14.17
2019-02-28T14:13:05.889Z,16.10
2019-02-28T14:15:37.866Z,18.40
2019-02-28T14:18:07.548Z,15.23
2019-02-28T14:20:36.747Z,13.77
2019-02-28T14:23:06.675Z,15.27
2019-02-28T14:25:36.336Z,15.50
2019-02-28T14:28:05.475Z,18.13
2019-02-28T14:30:33.818Z,15.63
2019-02-28T14:33:02.179Z,16.70
2019-02-28T14:35:34.073Z,14.70
2019-02-28T14:38:01.044Z,15.37
2019-02-28T14:40:29.268Z,12.67
2019-02-28T14:42:57.792Z,14.83
2019-02-28T14:45:25.743Z,13.23
2019-02-28T14:47:56.988Z,13.13
2019-02-28T14:50:24.098Z,10.80
2019-02-28T14:52:53.923Z,12.53
2019-02-28T14:55:22.922Z,15.07
2019-02-28T14:57:51.949Z,17.53
2019-02-28T15:00:25.064Z,17.73
2019-02-28T15:02:53.629Z,15.77
2019-02-28T15:05:21.765Z,12.83
2019-02-28T15:07:49.872Z,14.90
2019-02-28T15:10:18.845Z,13.73
2019-02-28T15:12:46.959Z,14.00
2019-02-28T15:15:17.974Z,15.13
2019-02-28T15:17:48.099Z,14.83
2019-02-28T15:20:16.201Z,15.00
2019-02-28T15:22:44.271Z,13.07
2019-02-28T15:25:15.328Z,13.07
2019-02-28T15:27:44.611Z,11.70
2019-02-28T15:30:19.215Z,11.90
2019-02-28T15:32:50.682Z,11.23
2019-02-28T15:35:19.348Z,12.87
2019-02-28T15:37:47.947Z,10.43
2019-02-28T15:40:24.631Z,13.53
2019-02-28T15:42:53.243Z,12.80
2019-02-28T15:45:21.449Z,14.10
2019-02-28T15:47:55.458Z,16.37
2019-02-28T15:50:26.130Z,19.37
2019-02-28T15:52:56.006Z,20.43
2019-02-28T15:55:26.083Z,19.13
2019-02-28T15:57:54.276Z,18.63
2019-02-28T16:00:25.965Z,17.27
2019-02-28T16:02:54.860Z,17.03
2019-02-28T16:05:24.047Z,20.13
2019-02-28T16:07:52.833Z,18.57
2019-02-28T16:10:23.918Z,19.77
2019-02-28T16:12:53.495Z,21.90
2019-02-28T16:15:21.570Z,22.20
2019-02-28T16:17:50.135Z,18.33
2019-02-28T16:20:18.223Z,21.20
2019-02-28T16:22:52.066Z,24.50
2019-02-28T16:25:20.947Z,21.67
2019-02-28T16:27:49.208Z,22.27
2019-02-28T16:30:17.524Z,25.53
2019-02-28T16:32:49.158Z,19.83
2019-02-28T16:35:15.913Z,23.87
2019-02-28T16:37:45.273Z,19.17
2019-02-28T16:40:15.558Z,21.67
2019-02-28T16:42:46.478Z,19.27
2019-02-28T16:45:41.983Z,20.13
2019-02-28T16:48:36.617Z,20.93
2019-02-28T16:51:08.074Z,18.07
2019-02-28T16:53:58.283Z,19.50
2019-02-28T16:56:26.372Z,20.57
2019-02-28T16:59:07.415Z,20.13
2019-02-28T17:01:38.725Z,18.30
2019-02-28T17:04:08.567Z,19.83
2019-02-28T17:06:36.665Z,19.33
2019-02-28T17:09:15.741Z,15.80
2019-02-28T17:11:51.419Z,15.33
2019-02-28T17:14:20.646Z,21.13
2019-02-28T17:17:21.952Z,14.33
2019-02-28T17:19:51.993Z,13.53
2019-02-28T17:22:26.902Z,13.43
2019-02-28T17:24:56.996Z,12.57
2019-02-28T17:27:38.691Z,11.80
2019-02-28T17:30:45.851Z,14.07
2019-02-28T17:33:16.403Z,16.20
2019-02-28T17:35:45.971Z,14.47
2019-02-28T17:38:14.176Z,14.60
2019-02-28T17:40:42.463Z,21.17
2019-02-28T17:43:13.752Z,15.37
2019-02-28T17:45:42.667Z,14.27
2019-02-28T17:49:19.680Z,14.20
2019-02-28T17:52:12.295Z,15.07
2019-02-28T17:55:37.598Z,18.97
2019-02-28T17:58:33.540Z,16.03
2019-02-28T18:01:33.675Z,20.20
2019-02-28T18:05:09.678Z,19.73
2019-02-28T18:08:00.597Z,18.37
2019-02-28T18:11:19.043Z,20.03
2019-02-28T18:14:37.746Z,21.63
2019-02-28T18:18:17.900Z,22.63
2019-02-28T18:21:26.402Z,16.73
2019-02-28T18:24:52.229Z,18.50
2019-02-28T18:28:18.854Z,16.77
2019-02-28T18:31:12.777Z,16.37
2019-02-28T18:33:47.660Z,15.53
2019-02-28T18:36:19.667Z,16.83
2019-02-28T18:38:48.624Z,15.80
2019-02-28T18:41:17.537Z,15.70
2019-02-28T18:43:46.164Z,12.23
2019-02-28T18:46:14.304Z,13.83
2019-02-28T18:48:43.737Z,13.77
2019-02-28T18:51:11.961Z,13.93
2019-02-28T18:53:40.991Z,12.57
2019-02-28T18:56:09.148Z,12.53
2019-02-28T18:58:37.404Z,11.43
2019-02-28T19:01:06.345Z,10.57
2019-02-28T19:03:34.550Z,7.57
2019-02-28T19:06:05.389Z,11.90
2019-02-28T19:08:33.428Z,10.30
2019-02-28T19:11:02.526Z,10.73
2019-02-28T19:13:30.476Z,7.40
2019-02-28T19:15:59.047Z,10.17
2019-02-28T19:18:28.947Z,7.33
2019-02-28T19:20:56.925Z,8.23
2019-02-28T19:23:25.907Z,8.07
2019-02-28T19:25:55.347Z,8.37
2019-02-28T19:28:30.361Z,8.50
2019-02-28T19:31:00.829Z,6.47
2019-02-28T19:33:28.911Z,8.20
2019-02-28T19:35:57.424Z,8.43
2019-02-28T19:38:25.912Z,8.17
2019-02-28T19:40:53.976Z,10.90
2019-02-28T19:43:23.397Z,5.57
2019-02-28T19:45:52.597Z,8.07
2019-02-28T19:48:21.128Z,6.80
2019-02-28T19:50:49.514Z,6.20
2019-02-28T19:53:18.190Z,5.00
2019-02-28T19:55:47.853Z,7.90
2019-02-28T19:58:16.554Z,5.47
2019-02-28T20:00:45.022Z,6.40
2019-02-28T20:03:13.522Z,7.43
2019-02-28T20:05:41.808Z,6.30
2019-02-28T20:08:10.831Z,5.60
2019-02-28T20:10:40.376Z,5.67
2019-02-28T20:13:10.879Z,6.87
2019-02-28T20:15:40.739Z,6.83
2019-02-28T20:18:09.411Z,8.50
2019-02-28T20:20:37.909Z,8.43
2019-02-28T20:23:08.110Z,4.67
2019-02-28T20:25:36.436Z,5.23
2019-02-28T20:28:04.700Z,9.63
2019-02-28T20:30:33.708Z,6.47
2019-02-28T20:33:04.214Z,8.17
2019-02-28T20:35:32.996Z,7.87
2019-02-28T20:38:01.712Z,8.60
2019-02-28T20:40:31.014Z,5.57
2019-02-28T20:42:59.468Z,7.23
2019-02-28T20:45:27.600Z,6.27
2019-02-28T20:47:58.290Z,9.43
2019-02-28T20:50:30.683Z,10.00
2019-02-28T20:53:00.123Z,9.53
2019-02-28T20:55:29.354Z,12.70
2019-02-28T20:57:57.483Z,9.70
2019-02-28T21:00:26.393Z,7.23
2019-02-28T21:02:54.430Z,7.70
2019-02-28T21:05:22.641Z,8.20
2019-02-28T21:07:50.986Z,9.20
2019-02-28T21:10:19.405Z,10.97
2019-02-28T21:12:47.747Z,9.37
2019-02-28T21:15:15.476Z,13.13
2019-02-28T21:17:45.224Z,8.50
2019-02-28T21:20:13.345Z,9.60
2019-02-28T21:22:43.207Z,9.43
2019-02-28T21:25:17.770Z,6.73
2019-02-28T21:27:47.455Z,5.33
2019-02-28T21:30:18.962Z,8.83
2019-02-28T21:32:47.597Z,7.77
2019-02-28T21:35:18.354Z,6.20
2019-02-28T21:37:47.234Z,7.87
2019-02-28T21:40:16.534Z,7.93
2019-02-28T21:42:44.896Z,6.30
2019-02-28T21:45:16.813Z,4.23
2019-02-28T21:47:46.065Z,5.87
2019-02-28T21:50:15.982Z,7.77
2019-02-28T21:52:44.392Z,8.63
2019-02-28T21:55:13.242Z,4.63
2019-02-28T21:57:41.491Z,8.20
2019-02-28T22:00:21.460Z,6.80
2019-02-28T22:02:50.229Z,6.70
2019-02-28T22:05:18.739Z,8.00
2019-02-28T22:07:47.292Z,7.83
2019-02-28T22:10:15.641Z,6.27
2019-02-28T22:12:44.345Z,9.43
2019-02-28T22:15:14.996Z,6.70
2019-02-28T22:17:43.869Z,4.43
2019-02-28T22:20:15.725Z,5.67
2019-02-28T22:22:44.021Z,5.97
2019-02-28T22:25:12.801Z,8.10
2019-02-28T22:27:40.913Z,5.80
2019-02-28T22:30:50.282Z,4.60
2019-02-28T22:33:35.813Z,4.73
2019-02-28T22:36:08.247Z,6.50
2019-02-28T22:38:37.146Z,6.50
2019-02-28T22:41:06.119Z,3.63
2019-02-28T22:43:34.452Z,8.73
2019-02-28T22:46:02.672Z,5.37
2019-02-28T22:48:30.747Z,6.40
2019-02-28T22:50:58.713Z,5.50
2019-02-28T22:53:26.799Z,4.30
2019-02-28T22:55:56.062Z,4.33
2019-02-28T22:58:24.455Z,2.73
2019-02-28T23:01:00.030Z,2.80
2019-02-28T23:03:29.772Z,5.67
2019-02-28T23:05:58.396Z,6.20
2019-02-28T23:08:26.809Z,4.17
2019-02-28T23:10:54.726Z,2.47
2019-02-28T23:13:23.111Z,2.77
2019-02-28T23:15:51.725Z,3.87
2019-02-28T23:18:20.229Z,5.37
2019-02-28T23:20:48.206Z,1.70
2019-02-28T23:23:16.654Z,3.30
2019-02-28T23:25:45.158Z,3.47
2019-02-28T23:28:23.295Z,6.63
2019-02-28T23:31:59.117Z,3.80
2019-02-28T23:34:38.057Z,3.80
2019-02-28T23:37:06.939Z,3.97
2019-02-28T23:39:35.539Z,5.17
2019-02-28T23:42:03.965Z,6.37
2019-02-28T23:44:32.585Z,3.07
2019-02-28T23:47:00.741Z,4.07
2019-02-28T23:49:29.369Z,5.33
2019-02-28T23:51:57.618Z,6.10
2019-02-28T23:54:26.034Z,3.93
2019-02-28T23:56:54.551Z,4.03
2019-02-28T23:59:22.723Z,4.93
